createdAt,value
2018-07-04T00:00:20.542Z,34.46
2018-07-04T00:01:30.217Z,34.36
2018-07-04T00:02:39.691Z,34.46
2018-07-04T00:03:49.608Z,34.56
2018-07-04T00:04:58.500Z,34.46
2018-07-04T00:06:08.165Z,34.36
2018-07-04T00:07:17.863Z,34.46
2018-07-04T00:08:26.524Z,34.46
2018-07-04T00:09:35.668Z,34.46
2018-07-04T00:10:45.326Z,34.56
2018-07-04T00:11:54.527Z,34.46
2018-07-04T00:13:03.689Z,34.46
2018-07-04T00:14:12.573Z,34.56
2018-07-04T00:15:22.252Z,34.46
2018-07-04T00:16:31.389Z,34.46
2018-07-04T00:17:40.278Z,34.46
2018-07-04T00:18:49.938Z,34.46
2018-07-04T00:19:58.830Z,34.46
2018-07-04T00:21:08.496Z,34.36
2018-07-04T00:22:17.931Z,34.46
2018-07-04T00:23:27.340Z,34.36
2018-07-04T00:24:36.741Z,34.46
2018-07-04T00:25:45.789Z,34.08
2018-07-04T00:26:55.030Z,34.46
2018-07-04T00:28:04.181Z,34.56
2018-07-04T00:29:13.327Z,34.46
2018-07-04T00:30:22.790Z,34.46
2018-07-04T00:31:31.939Z,34.08
2018-07-04T00:32:41.099Z,34.36
2018-07-04T00:33:50.297Z,34.17
2018-07-04T00:34:59.697Z,34.36
2018-07-04T00:36:08.605Z,34.46
2018-07-04T00:37:18.294Z,34.36
2018-07-04T00:38:27.699Z,34.46
2018-07-04T00:39:36.585Z,34.36
2018-07-04T00:40:45.977Z,34.36
2018-07-04T00:41:55.134Z,34.46
2018-07-04T00:43:04.289Z,34.17
2018-07-04T00:44:14.235Z,34.08
2018-07-04T00:45:24.070Z,34.17
2018-07-04T00:46:33.495Z,34.17
2018-07-04T00:47:43.164Z,34.36
2018-07-04T00:48:52.831Z,34.27
2018-07-04T00:50:02.228Z,34.17
2018-07-04T00:51:11.683Z,34.17
2018-07-04T00:52:21.592Z,34.27
2018-07-04T00:53:30.489Z,34.46
2018-07-04T00:54:39.889Z,34.27
2018-07-04T00:55:49.549Z,34.56
2018-07-04T00:56:59.769Z,34.46
2018-07-04T00:58:09.734Z,34.36
2018-07-04T00:59:19.170Z,34.46
2018-07-04T01:00:28.852Z,34.17
2018-07-04T01:01:38.259Z,34.46
2018-07-04T01:02:47.402Z,34.46
2018-07-04T01:03:56.287Z,34.66
2018-07-04T01:05:05.690Z,34.36
2018-07-04T01:06:15.387Z,34.36
2018-07-04T01:07:24.782Z,34.46
2018-07-04T01:08:34.438Z,34.27
2018-07-04T01:09:44.110Z,34.75
2018-07-04T01:10:53.267Z,34.36
2018-07-04T01:12:02.413Z,34.66
2018-07-04T01:13:12.065Z,34.27
2018-07-04T01:14:21.227Z,34.46
2018-07-04T01:15:30.407Z,34.36
2018-07-04T01:16:39.562Z,34.36
2018-07-04T01:17:49.306Z,34.66
2018-07-04T01:18:58.763Z,34.66
2018-07-04T01:20:08.456Z,34.56
2018-07-04T01:21:17.339Z,34.27
2018-07-04T01:22:26.516Z,34.27
2018-07-04T01:23:35.705Z,34.66
2018-07-04T01:24:44.595Z,34.36
2018-07-04T01:25:54.059Z,34.66
2018-07-04T01:27:03.205Z,34.27
2018-07-04T01:28:12.869Z,34.27
2018-07-04T01:29:22.272Z,34.27
2018-07-04T01:30:31.991Z,34.36
2018-07-04T01:31:41.139Z,34.56
2018-07-04T01:32:50.809Z,34.66
2018-07-04T01:33:59.979Z,34.56
2018-07-04T01:35:09.170Z,34.56
2018-07-04T01:36:18.819Z,34.66
2018-07-04T01:37:28.225Z,34.66
2018-07-04T01:38:37.887Z,34.56
2018-07-04T01:39:47.314Z,34.56
2018-07-04T01:40:56.971Z,34.56
2018-07-04T01:42:06.380Z,34.66
2018-07-04T01:43:15.780Z,34.56
2018-07-04T01:44:25.441Z,34.75
2018-07-04T01:45:35.123Z,34.56
2018-07-04T01:46:44.792Z,34.56
2018-07-04T01:47:53.458Z,34.46
2018-07-04T01:49:02.663Z,34.75
2018-07-04T01:50:12.737Z,34.66
2018-07-04T01:51:22.407Z,34.66
2018-07-04T01:52:31.813Z,34.66
2018-07-04T01:53:41.214Z,34.46
2018-07-04T01:54:50.360Z,34.56
2018-07-04T01:55:59.757Z,34.66
2018-07-04T01:57:09.680Z,34.66
2018-07-04T01:58:19.585Z,34.75
2018-07-04T01:59:28.769Z,34.66
2018-07-04T02:00:38.451Z,34.66
2018-07-04T02:01:47.855Z,34.56
2018-07-04T02:02:57.505Z,34.46
2018-07-04T02:04:06.150Z,34.66
2018-07-04T02:05:15.823Z,34.36
2018-07-04T02:06:25.475Z,34.46
2018-07-04T02:07:34.884Z,34.46
2018-07-04T02:08:44.795Z,34.46
2018-07-04T02:09:53.692Z,34.66
2018-07-04T02:11:03.088Z,34.46
2018-07-04T02:12:11.978Z,34.66
2018-07-04T02:13:21.119Z,34.66
2018-07-04T02:14:30.524Z,34.66
2018-07-04T02:15:39.938Z,34.66
2018-07-04T02:16:49.851Z,34.46
2018-07-04T02:17:59.015Z,34.85
2018-07-04T02:19:08.221Z,34.85
2018-07-04T02:20:17.888Z,34.85
2018-07-04T02:21:27.556Z,34.36
2018-07-04T02:22:36.729Z,34.46
2018-07-04T02:23:45.881Z,34.95
2018-07-04T02:24:55.025Z,34.95
2018-07-04T02:26:04.173Z,34.46
2018-07-04T02:27:13.314Z,34.56
2018-07-04T02:28:22.979Z,34.56
2018-07-04T02:29:32.384Z,34.66
2018-07-04T02:30:41.537Z,34.66
2018-07-04T02:31:51.210Z,34.36
2018-07-04T02:33:01.136Z,34.46
2018-07-04T02:34:11.089Z,34.46
2018-07-04T02:35:20.726Z,34.46
2018-07-04T02:36:30.385Z,34.46
2018-07-04T02:37:40.051Z,34.56
2018-07-04T02:38:49.757Z,34.36
2018-07-04T02:39:58.911Z,34.36
2018-07-04T02:41:08.318Z,34.36
2018-07-04T02:42:18.246Z,34.85
2018-07-04T02:43:27.900Z,34.85
2018-07-04T02:44:37.306Z,34.46
2018-07-04T02:45:46.462Z,34.83
2018-07-04T02:46:56.167Z,34.85
2018-07-04T02:48:05.643Z,34.35
2018-07-04T02:49:15.306Z,34.46
2018-07-04T02:50:24.976Z,34.95
2018-07-04T02:51:34.411Z,34.35
2018-07-04T02:52:44.089Z,34.83
2018-07-04T02:53:53.751Z,34.35
2018-07-04T02:55:03.191Z,34.36
2018-07-04T02:56:12.916Z,34.44
2018-07-04T02:57:22.835Z,34.35
2018-07-04T02:58:32.234Z,34.35
2018-07-04T02:59:41.644Z,34.75
2018-07-04T03:00:51.054Z,34.64
2018-07-04T03:02:00.463Z,34.56
2018-07-04T03:03:09.352Z,34.44
2018-07-04T03:04:19.036Z,34.54
2018-07-04T03:05:28.958Z,34.93
2018-07-04T03:06:38.610Z,34.93
2018-07-04T03:07:48.267Z,34.44
2018-07-04T03:08:58.197Z,34.44
2018-07-04T03:10:07.353Z,35.03
2018-07-04T03:11:17.015Z,34.83
2018-07-04T03:12:26.667Z,34.44
2018-07-04T03:13:36.586Z,34.44
2018-07-04T03:14:45.990Z,34.83
2018-07-04T03:15:55.931Z,34.44
2018-07-04T03:17:05.611Z,34.44
2018-07-04T03:18:15.037Z,34.54
2018-07-04T03:19:24.719Z,34.54
2018-07-04T03:20:34.377Z,34.54
2018-07-04T03:21:44.044Z,34.64
2018-07-04T03:22:53.737Z,34.54
2018-07-04T03:24:03.408Z,34.74
2018-07-04T03:25:13.070Z,34.54
2018-07-04T03:26:23.000Z,34.83
2018-07-04T03:27:32.660Z,34.35
2018-07-04T03:28:42.067Z,34.35
2018-07-04T03:29:51.736Z,34.35
2018-07-04T03:31:01.396Z,34.54
2018-07-04T03:32:11.124Z,34.83
2018-07-04T03:33:21.086Z,34.35
2018-07-04T03:34:30.248Z,34.64
2018-07-04T03:35:39.149Z,34.44
2018-07-04T03:36:48.819Z,34.35
2018-07-04T03:37:58.727Z,34.44
2018-07-04T03:39:08.402Z,34.44
2018-07-04T03:40:18.390Z,34.44
2018-07-04T03:41:28.057Z,34.64
2018-07-04T03:42:37.201Z,34.44
2018-07-04T03:43:46.615Z,34.64
2018-07-04T03:44:56.019Z,34.64
2018-07-04T03:46:05.670Z,34.44
2018-07-04T03:47:15.326Z,34.44
2018-07-04T03:48:24.983Z,34.54
2018-07-04T03:49:34.390Z,34.64
2018-07-04T03:50:43.275Z,34.74
2018-07-04T03:51:52.676Z,34.74
2018-07-04T03:53:02.215Z,34.54
2018-07-04T03:54:11.375Z,34.54
2018-07-04T03:55:20.278Z,34.54
2018-07-04T03:56:29.947Z,34.44
2018-07-04T03:57:39.095Z,34.54
2018-07-04T03:58:49.015Z,34.54
2018-07-04T03:59:58.417Z,34.44
2018-07-04T04:01:08.100Z,34.54
2018-07-04T04:02:17.258Z,34.44
2018-07-04T04:03:26.667Z,34.25
2018-07-04T04:04:35.822Z,34.64
2018-07-04T04:05:44.974Z,34.35
2018-07-04T04:06:54.377Z,34.64
2018-07-04T04:08:03.773Z,34.54
2018-07-04T04:09:13.183Z,34.54
2018-07-04T04:10:23.127Z,34.64
2018-07-04T04:11:33.038Z,34.25
2018-07-04T04:12:42.698Z,34.74
2018-07-04T04:13:52.101Z,34.64
2018-07-04T04:15:01.505Z,34.25
2018-07-04T04:16:11.170Z,34.74
2018-07-04T04:17:19.841Z,34.54
2018-07-04T04:18:29.501Z,34.74
2018-07-04T04:19:39.156Z,34.64
2018-07-04T04:20:48.355Z,34.64
2018-07-04T04:21:57.504Z,34.64
2018-07-04T04:23:06.923Z,34.54
2018-07-04T04:24:16.841Z,34.64
2018-07-04T04:25:26.514Z,34.74
2018-07-04T04:26:35.925Z,34.64
2018-07-04T04:27:45.858Z,34.54
2018-07-04T04:28:55.283Z,34.54
2018-07-04T04:30:04.433Z,34.64
2018-07-04T04:31:14.360Z,34.64
2018-07-04T04:32:23.511Z,34.54
2018-07-04T04:33:33.001Z,34.54
2018-07-04T04:34:41.637Z,34.74
2018-07-04T04:35:51.042Z,34.64
2018-07-04T04:37:00.969Z,34.64
2018-07-04T04:38:10.644Z,34.64
2018-07-04T04:39:20.573Z,34.54
2018-07-04T04:40:29.468Z,34.64
2018-07-04T04:41:38.869Z,34.54
2018-07-04T04:42:48.519Z,34.25
2018-07-04T04:43:57.686Z,34.54
2018-07-04T04:45:06.569Z,34.64
2018-07-04T04:46:15.973Z,34.64
2018-07-04T04:47:25.632Z,34.74
2018-07-04T04:48:35.026Z,34.54
2018-07-04T04:49:44.936Z,34.64
2018-07-04T04:50:54.345Z,34.54
2018-07-04T04:52:03.485Z,34.64
2018-07-04T04:53:12.883Z,34.44
2018-07-04T04:54:21.796Z,34.74
2018-07-04T04:55:30.700Z,34.74
2018-07-04T04:56:40.365Z,34.54
2018-07-04T04:57:49.569Z,34.54
2018-07-04T04:58:58.724Z,34.54
2018-07-04T05:00:08.143Z,34.54
2018-07-04T05:01:17.290Z,34.44
2018-07-04T05:02:26.699Z,34.64
2018-07-04T05:03:36.105Z,34.54
2018-07-04T05:04:45.251Z,34.64
2018-07-04T05:05:54.903Z,34.64
2018-07-04T05:07:04.315Z,34.25
2018-07-04T05:08:13.978Z,34.54
2018-07-04T05:09:22.603Z,34.44
2018-07-04T05:10:32.012Z,34.44
2018-07-04T05:11:41.673Z,34.16
2018-07-04T05:12:51.092Z,34.44
2018-07-04T05:14:00.263Z,34.35
2018-07-04T05:15:09.427Z,34.35
2018-07-04T05:16:19.344Z,34.35
2018-07-04T05:17:28.508Z,34.35
2018-07-04T05:18:37.655Z,34.44
2018-07-04T05:19:46.801Z,34.44
2018-07-04T05:20:56.283Z,34.54
2018-07-04T05:22:06.277Z,33.96
2018-07-04T05:23:15.940Z,34.44
2018-07-04T05:24:25.086Z,34.35
2018-07-04T05:25:34.788Z,34.44
2018-07-04T05:26:44.444Z,34.25
2018-07-04T05:27:53.849Z,34.44
2018-07-04T05:29:02.505Z,34.44
2018-07-04T05:30:11.908Z,33.96
2018-07-04T05:31:21.101Z,34.54
2018-07-04T05:32:30.252Z,34.46
2018-07-04T05:33:39.912Z,34.44
2018-07-04T05:34:49.575Z,34.46
2018-07-04T05:35:59.489Z,34.46
2018-07-04T05:37:08.887Z,34.44
2018-07-04T05:38:17.781Z,34.44
2018-07-04T05:39:26.952Z,34.35
2018-07-04T05:40:36.136Z,34.44
2018-07-04T05:41:46.171Z,34.36
2018-07-04T05:42:55.374Z,34.16
2018-07-04T05:44:04.537Z,34.56
2018-07-04T05:45:13.681Z,34.44
2018-07-04T05:46:23.086Z,34.36
2018-07-04T05:47:33.078Z,34.36
2018-07-04T05:48:42.605Z,34.16
2018-07-04T05:49:51.746Z,34.27
2018-07-04T05:51:00.904Z,34.46
2018-07-04T05:52:10.066Z,34.36
2018-07-04T05:53:19.726Z,34.17
2018-07-04T05:54:28.901Z,34.46
2018-07-04T05:55:38.582Z,34.36
2018-07-04T05:56:48.507Z,34.46
2018-07-04T05:57:57.654Z,34.17
2018-07-04T05:59:07.053Z,34.27
2018-07-04T06:00:15.962Z,34.36
2018-07-04T06:01:25.618Z,34.36
2018-07-04T06:02:35.296Z,34.46
2018-07-04T06:03:44.797Z,34.17
2018-07-04T06:04:54.458Z,34.27
2018-07-04T06:06:04.135Z,34.36
2018-07-04T06:07:14.071Z,34.27
2018-07-04T06:08:23.244Z,34.36
2018-07-04T06:09:32.409Z,34.46
2018-07-04T06:10:41.557Z,34.36
2018-07-04T06:11:50.971Z,34.36
2018-07-04T06:13:00.636Z,34.66
2018-07-04T06:14:10.050Z,34.27
2018-07-04T06:15:19.702Z,34.27
2018-07-04T06:16:28.862Z,34.56
2018-07-04T06:17:37.768Z,34.46
2018-07-04T06:18:47.925Z,34.56
2018-07-04T06:19:57.641Z,34.56
2018-07-04T06:21:07.052Z,34.46
2018-07-04T06:22:16.452Z,34.56
2018-07-04T06:23:25.593Z,34.66
2018-07-04T06:24:34.789Z,34.66
2018-07-04T06:25:44.579Z,34.36
2018-07-04T06:26:54.241Z,34.46
2018-07-04T06:28:03.638Z,34.36
2018-07-04T06:29:12.795Z,34.36
2018-07-04T06:30:22.714Z,34.66
2018-07-04T06:31:31.861Z,34.85
2018-07-04T06:32:41.296Z,34.95
2018-07-04T06:33:51.151Z,34.56
2018-07-04T06:35:00.612Z,34.36
2018-07-04T06:36:10.113Z,34.85
2018-07-04T06:37:19.792Z,34.75
2018-07-04T06:38:28.731Z,34.75
2018-07-04T06:39:37.880Z,34.66
2018-07-04T06:40:47.544Z,34.85
2018-07-04T06:41:57.205Z,34.56
2018-07-04T06:43:06.625Z,34.66
2018-07-04T06:44:15.539Z,34.56
2018-07-04T06:45:24.446Z,34.46
2018-07-04T06:46:34.122Z,34.56
2018-07-04T06:47:44.040Z,34.85
2018-07-04T06:48:53.608Z,34.56
2018-07-04T06:50:03.142Z,34.46
2018-07-04T06:51:12.550Z,34.56
2018-07-04T06:52:21.712Z,34.36
2018-07-04T06:53:31.393Z,34.46
2018-07-04T06:54:41.324Z,34.46
2018-07-04T06:55:50.997Z,34.46
2018-07-04T06:56:59.961Z,34.46
2018-07-04T06:58:09.129Z,34.46
2018-07-04T06:59:18.307Z,34.75
2018-07-04T07:00:27.456Z,34.75
2018-07-04T07:01:37.152Z,34.75
2018-07-04T07:02:46.829Z,34.66
2018-07-04T07:03:55.990Z,34.75
2018-07-04T07:05:05.403Z,34.66
2018-07-04T07:06:14.828Z,34.75
2018-07-04T07:07:24.494Z,34.75
2018-07-04T07:08:33.910Z,34.75
2018-07-04T07:09:43.277Z,34.75
2018-07-04T07:10:52.429Z,34.75
2018-07-04T07:12:01.842Z,34.75
2018-07-04T07:13:11.283Z,34.85
2018-07-04T07:14:21.282Z,34.66
2018-07-04T07:15:31.157Z,34.66
2018-07-04T07:16:41.097Z,34.66
2018-07-04T07:17:50.783Z,34.66
2018-07-04T07:19:00.193Z,34.66
2018-07-04T07:20:09.641Z,34.75
2018-07-04T07:21:19.731Z,34.56
2018-07-04T07:22:28.905Z,34.66
2018-07-04T07:23:38.312Z,34.66
2018-07-04T07:24:47.732Z,34.75
2018-07-04T07:25:57.131Z,34.85
2018-07-04T07:27:06.556Z,34.66
2018-07-04T07:28:16.631Z,34.66
2018-07-04T07:29:26.313Z,34.75
2018-07-04T07:30:34.951Z,34.75
2018-07-04T07:31:44.365Z,34.75
2018-07-04T07:32:53.779Z,34.85
2018-07-04T07:34:03.627Z,34.95
2018-07-04T07:35:13.497Z,34.85
2018-07-04T07:36:23.022Z,34.85
2018-07-04T07:37:32.693Z,34.85
2018-07-04T07:38:42.101Z,34.75
2018-07-04T07:39:51.248Z,34.95
2018-07-04T07:41:00.654Z,34.85
2018-07-04T07:42:09.552Z,34.85
2018-07-04T07:43:18.989Z,34.75
2018-07-04T07:44:28.152Z,34.95
2018-07-04T07:45:37.563Z,34.75
2018-07-04T07:46:46.980Z,34.75
2018-07-04T07:47:56.385Z,34.85
2018-07-04T07:49:05.529Z,34.75
2018-07-04T07:50:15.205Z,34.85
2018-07-04T07:51:24.103Z,34.95
2018-07-04T07:52:33.767Z,34.75
2018-07-04T07:53:43.166Z,34.75
2018-07-04T07:54:52.332Z,34.95
2018-07-04T07:56:01.492Z,35.05
2018-07-04T07:57:10.659Z,35.05
2018-07-04T07:58:19.565Z,34.95
2018-07-04T07:59:28.994Z,34.95
2018-07-04T08:00:38.916Z,35.05
2018-07-04T08:01:48.592Z,35.43
2018-07-04T08:02:58.158Z,35.14
2018-07-04T08:04:07.566Z,35.05
2018-07-04T08:05:17.236Z,35.53
2018-07-04T08:06:26.403Z,35.05
2018-07-04T08:07:36.073Z,35.53
2018-07-04T08:08:45.479Z,35.53
2018-07-04T08:09:55.415Z,35.05
2018-07-04T08:11:04.825Z,35.43
2018-07-04T08:12:14.265Z,35.43
2018-07-04T08:13:23.687Z,35.43
2018-07-04T08:14:32.588Z,35.33
2018-07-04T08:15:42.253Z,35.43
2018-07-04T08:16:51.933Z,35.43
2018-07-04T08:18:01.349Z,35.43
2018-07-04T08:19:10.769Z,35.33
2018-07-04T08:20:20.438Z,35.33
2018-07-04T08:21:30.120Z,35.43
2018-07-04T08:22:39.274Z,35.43
2018-07-04T08:23:48.967Z,35.43
2018-07-04T08:24:58.414Z,35.43
2018-07-04T08:26:07.832Z,35.33
2018-07-04T08:27:16.728Z,35.43
2018-07-04T08:28:26.137Z,35.43
2018-07-04T08:29:35.029Z,35.33
2018-07-04T08:30:44.251Z,35.33
2018-07-04T08:31:53.728Z,35.33
2018-07-04T08:33:03.545Z,35.43
2018-07-04T08:34:12.714Z,35.33
2018-07-04T08:35:21.878Z,35.33
2018-07-04T08:36:31.295Z,35.43
2018-07-04T08:37:40.963Z,35.33
2018-07-04T08:38:50.717Z,35.33
2018-07-04T08:40:00.289Z,35.43
2018-07-04T08:41:09.713Z,35.33
2018-07-04T08:42:18.856Z,35.43
2018-07-04T08:43:28.016Z,35.53
2018-07-04T08:44:37.769Z,35.43
2018-07-04T08:45:47.807Z,35.43
2018-07-04T08:46:56.973Z,35.33
2018-07-04T08:48:06.649Z,35.33
2018-07-04T08:49:15.821Z,35.33
2018-07-04T08:50:24.992Z,35.24
2018-07-04T08:51:34.693Z,35.43
2018-07-04T08:52:44.501Z,35.24
2018-07-04T08:53:53.734Z,35.24
2018-07-04T08:55:03.159Z,35.24
2018-07-04T08:56:12.575Z,35.24
2018-07-04T08:57:22.498Z,35.24
2018-07-04T08:58:31.938Z,35.33
2018-07-04T08:59:41.625Z,35.24
2018-07-04T09:00:51.069Z,35.33
2018-07-04T09:02:00.748Z,35.33
2018-07-04T09:03:10.873Z,35.24
2018-07-04T09:04:19.772Z,35.33
2018-07-04T09:05:29.233Z,35.24
2018-07-04T09:06:39.081Z,35.24
2018-07-04T09:07:48.505Z,35.24
2018-07-04T09:08:57.685Z,35.33
2018-07-04T09:10:07.352Z,35.24
2018-07-04T09:11:17.029Z,35.43
2018-07-04T09:12:25.936Z,35.33
2018-07-04T09:13:35.341Z,35.33
2018-07-04T09:14:44.754Z,35.33
2018-07-04T09:15:53.902Z,35.33
2018-07-04T09:17:03.560Z,35.24
2018-07-04T09:18:12.767Z,35.24
2018-07-04T09:19:21.941Z,35.24
2018-07-04T09:20:31.369Z,35.24
2018-07-04T09:21:41.037Z,35.24
2018-07-04T09:22:51.152Z,35.14
2018-07-04T09:24:00.805Z,35.24
2018-07-04T09:25:09.705Z,35.24
2018-07-04T09:26:19.400Z,35.33
2018-07-04T09:27:28.840Z,35.24
2018-07-04T09:28:38.017Z,35.43
2018-07-04T09:29:47.188Z,35.14
2018-07-04T09:30:56.097Z,35.33
2018-07-04T09:32:05.526Z,35.24
2018-07-04T09:33:15.187Z,35.14
2018-07-04T09:34:24.881Z,35.53
2018-07-04T09:35:33.770Z,35.14
2018-07-04T09:36:43.182Z,35.14
2018-07-04T09:37:52.329Z,35.14
2018-07-04T09:39:01.548Z,35.14
2018-07-04T09:40:10.966Z,35.43
2018-07-04T09:41:20.866Z,35.43
2018-07-04T09:42:30.804Z,35.43
2018-07-04T09:43:40.721Z,35.43
2018-07-04T09:44:50.600Z,35.43
2018-07-04T09:45:59.761Z,35.33
2018-07-04T09:47:09.427Z,35.53
2018-07-04T09:48:18.906Z,35.43
2018-07-04T09:49:28.312Z,35.24
2018-07-04T09:50:37.582Z,35.43
2018-07-04T09:51:46.531Z,35.33
2018-07-04T09:52:55.938Z,35.33
2018-07-04T09:54:04.831Z,35.43
2018-07-04T09:55:14.509Z,35.35
2018-07-04T09:56:23.944Z,35.43
2018-07-04T09:57:32.897Z,35.33
2018-07-04T09:58:42.834Z,35.35
2018-07-04T09:59:52.422Z,35.43
2018-07-04T10:01:01.322Z,35.33
2018-07-04T10:02:11.012Z,35.53
2018-07-04T10:03:20.938Z,35.35
2018-07-04T10:04:30.362Z,35.24
2018-07-04T10:05:40.327Z,35.43
2018-07-04T10:06:50.716Z,35.24
2018-07-04T10:08:00.381Z,35.33
2018-07-04T10:09:10.054Z,35.24
2018-07-04T10:10:19.748Z,35.43
2018-07-04T10:11:29.486Z,35.33
2018-07-04T10:12:38.721Z,35.33
2018-07-04T10:13:48.519Z,35.24
2018-07-04T10:14:58.066Z,35.33
2018-07-04T10:16:07.258Z,35.35
2018-07-04T10:17:17.187Z,35.43
2018-07-04T10:18:26.332Z,35.24
2018-07-04T10:19:35.509Z,35.33
2018-07-04T10:20:44.938Z,35.33
2018-07-04T10:21:54.628Z,35.24
2018-07-04T10:23:03.790Z,35.53
2018-07-04T10:24:13.061Z,35.53
2018-07-04T10:25:22.217Z,35.33
2018-07-04T10:26:31.890Z,35.45
2018-07-04T10:27:41.566Z,35.53
2018-07-04T10:28:50.984Z,35.35
2018-07-04T10:30:00.404Z,35.43
2018-07-04T10:31:09.822Z,35.53
2018-07-04T10:32:19.507Z,35.55
2018-07-04T10:33:29.184Z,35.45
2018-07-04T10:34:38.411Z,35.43
2018-07-04T10:35:47.320Z,35.35
2018-07-04T10:36:56.483Z,35.64
2018-07-04T10:38:05.635Z,35.64
2018-07-04T10:39:14.528Z,35.53
2018-07-04T10:40:23.937Z,35.43
2018-07-04T10:41:33.365Z,35.43
2018-07-04T10:42:43.085Z,35.43
2018-07-04T10:43:52.779Z,35.43
2018-07-04T10:45:02.454Z,35.43
2018-07-04T10:46:11.605Z,35.43
2018-07-04T10:47:21.266Z,35.43
2018-07-04T10:48:30.415Z,35.53
2018-07-04T10:49:39.833Z,35.43
2018-07-04T10:50:49.253Z,35.53
2018-07-04T10:51:58.492Z,35.43
2018-07-04T10:53:08.172Z,35.43
2018-07-04T10:54:17.844Z,35.43
2018-07-04T10:55:27.266Z,35.43
2018-07-04T10:56:36.747Z,35.45
2018-07-04T10:57:46.420Z,35.45
2018-07-04T10:58:55.852Z,35.45
2018-07-04T11:00:05.529Z,35.43
2018-07-04T11:01:14.952Z,35.45
2018-07-04T11:02:23.861Z,35.53
2018-07-04T11:03:33.267Z,35.45
2018-07-04T11:04:42.842Z,35.43
2018-07-04T11:05:52.415Z,35.33
2018-07-04T11:07:01.577Z,35.33
2018-07-04T11:08:10.751Z,35.33
2018-07-04T11:09:20.223Z,35.25
2018-07-04T11:10:29.671Z,35.43
2018-07-04T11:11:39.102Z,35.24
2018-07-04T11:12:48.528Z,35.43
2018-07-04T11:13:57.935Z,35.55
2018-07-04T11:15:06.830Z,35.55
2018-07-04T11:16:16.253Z,35.55
2018-07-04T11:17:25.688Z,35.35
2018-07-04T11:18:35.106Z,35.64
2018-07-04T11:19:44.509Z,35.53
2018-07-04T11:20:53.685Z,35.63
2018-07-04T11:22:03.130Z,35.84
2018-07-04T11:23:12.803Z,35.53
2018-07-04T11:24:21.974Z,35.45
2018-07-04T11:25:31.193Z,35.63
2018-07-04T11:26:41.144Z,35.84
2018-07-04T11:27:50.812Z,35.43
2018-07-04T11:28:59.957Z,35.72
2018-07-04T11:30:09.676Z,35.43
2018-07-04T11:31:19.355Z,35.45
2018-07-04T11:32:28.518Z,35.63
2018-07-04T11:33:37.929Z,35.64
2018-07-04T11:34:47.097Z,35.64
2018-07-04T11:35:56.548Z,35.74
2018-07-04T11:37:05.699Z,35.55
2018-07-04T11:38:15.120Z,35.64
2018-07-04T11:39:25.029Z,35.63
2018-07-04T11:40:34.444Z,35.64
2018-07-04T11:41:43.356Z,35.84
2018-07-04T11:42:52.767Z,35.63
2018-07-04T11:44:02.181Z,35.74
2018-07-04T11:45:11.845Z,35.74
2018-07-04T11:46:21.248Z,35.63
2018-07-04T11:47:31.399Z,35.72
2018-07-04T11:48:40.810Z,35.74
2018-07-04T11:49:49.987Z,35.64
2018-07-04T11:50:58.907Z,35.64
2018-07-04T11:52:08.314Z,35.84
2018-07-04T11:53:17.935Z,35.74
2018-07-04T11:54:27.115Z,35.55
2018-07-04T11:55:36.539Z,35.84
2018-07-04T11:56:45.689Z,35.63
2018-07-04T11:57:54.860Z,35.74
2018-07-04T11:59:04.029Z,35.74
2018-07-04T12:00:13.462Z,35.64
2018-07-04T12:01:22.865Z,35.74
2018-07-04T12:02:32.556Z,35.84
2018-07-04T12:03:41.454Z,35.74
2018-07-04T12:04:50.866Z,35.64
2018-07-04T12:06:00.287Z,35.74
2018-07-04T12:07:09.434Z,35.74
2018-07-04T12:08:18.349Z,35.74
2018-07-04T12:09:27.774Z,35.84
2018-07-04T12:10:37.718Z,35.74
2018-07-04T12:11:47.142Z,35.63
2018-07-04T12:12:56.571Z,35.84
2018-07-04T12:14:05.984Z,35.55
2018-07-04T12:15:15.652Z,35.74
2018-07-04T12:16:25.061Z,35.72
2018-07-04T12:17:34.470Z,35.63
2018-07-04T12:18:44.158Z,35.64
2018-07-04T12:19:53.110Z,35.72
2018-07-04T12:21:02.776Z,35.64
2018-07-04T12:22:13.072Z,35.74
2018-07-04T12:23:22.510Z,35.64
2018-07-04T12:24:31.694Z,35.64
2018-07-04T12:25:41.146Z,35.64
2018-07-04T12:26:50.676Z,35.74
2018-07-04T12:28:00.857Z,35.84
2018-07-04T12:29:10.013Z,35.84
2018-07-04T12:30:19.441Z,35.84
2018-07-04T12:31:28.867Z,35.74
2018-07-04T12:32:38.377Z,35.84
2018-07-04T12:33:47.332Z,35.84
2018-07-04T12:34:56.240Z,35.84
2018-07-04T12:36:05.680Z,35.74
2018-07-04T12:37:15.117Z,35.94
2018-07-04T12:38:24.866Z,35.74
2018-07-04T12:39:34.757Z,35.84
2018-07-04T12:40:44.487Z,35.72
2018-07-04T12:41:53.908Z,35.74
2018-07-04T12:43:03.150Z,35.84
2018-07-04T12:44:12.052Z,35.84
2018-07-04T12:45:21.465Z,35.72
2018-07-04T12:46:30.629Z,35.82
2018-07-04T12:47:39.790Z,35.74
2018-07-04T12:48:49.218Z,36.04
2018-07-04T12:49:59.191Z,35.82
2018-07-04T12:51:09.000Z,35.82
2018-07-04T12:52:18.857Z,35.74
2018-07-04T12:53:28.029Z,36.11
2018-07-04T12:54:37.671Z,35.74
2018-07-04T12:55:47.797Z,35.94
2018-07-04T12:56:57.228Z,35.82
2018-07-04T12:58:06.940Z,36.02
2018-07-04T12:59:16.889Z,35.94
2018-07-04T13:00:26.745Z,35.94
2018-07-04T13:01:36.170Z,35.94
2018-07-04T13:02:45.756Z,35.84
2018-07-04T13:03:55.178Z,36.04
2018-07-04T13:05:04.593Z,35.74
2018-07-04T13:06:13.492Z,35.72
2018-07-04T13:07:23.165Z,35.84
2018-07-04T13:08:32.652Z,35.72
2018-07-04T13:09:42.582Z,35.84
2018-07-04T13:10:51.997Z,36.02
2018-07-04T13:12:01.438Z,35.82
2018-07-04T13:13:11.131Z,35.82
2018-07-04T13:14:21.071Z,35.82
2018-07-04T13:15:30.498Z,35.82
2018-07-04T13:16:39.990Z,35.92
2018-07-04T13:17:49.434Z,35.64
2018-07-04T13:18:58.845Z,35.92
2018-07-04T13:20:08.790Z,35.94
2018-07-04T13:21:18.509Z,35.92
2018-07-04T13:22:27.933Z,35.94
2018-07-04T13:23:37.637Z,36.04
2018-07-04T13:24:47.402Z,36.02
2018-07-04T13:25:57.494Z,36.04
2018-07-04T13:27:07.238Z,36.22
2018-07-04T13:28:16.386Z,36.11
2018-07-04T13:29:25.613Z,36.04
2018-07-04T13:30:34.800Z,36.04
2018-07-04T13:31:44.482Z,36.02
2018-07-04T13:32:53.925Z,36.13
2018-07-04T13:34:03.390Z,36.04
2018-07-04T13:35:12.997Z,35.84
2018-07-04T13:36:22.892Z,36.02
2018-07-04T13:37:32.326Z,36.22
2018-07-04T13:38:41.801Z,35.94
2018-07-04T13:39:50.966Z,36.13
2018-07-04T13:41:00.387Z,36.02
2018-07-04T13:42:09.826Z,35.94
2018-07-04T13:43:19.249Z,36.04
2018-07-04T13:44:28.973Z,36.13
2018-07-04T13:45:38.820Z,35.94
2018-07-04T13:46:48.226Z,35.94
2018-07-04T13:47:57.897Z,36.13
2018-07-04T13:49:07.588Z,36.13
2018-07-04T13:50:17.705Z,35.94
2018-07-04T13:51:26.890Z,36.04
2018-07-04T13:52:36.302Z,35.94
2018-07-04T13:53:45.554Z,36.04
2018-07-04T13:54:55.239Z,36.02
2018-07-04T13:56:05.185Z,36.13
2018-07-04T13:57:15.139Z,36.04
2018-07-04T13:58:24.061Z,36.04
2018-07-04T13:59:33.743Z,36.02
2018-07-04T14:00:43.421Z,36.04
2018-07-04T14:01:53.090Z,36.22
2018-07-04T14:03:02.260Z,36.04
2018-07-04T14:04:12.137Z,36.13
2018-07-04T14:05:21.772Z,36.13
2018-07-04T14:06:31.719Z,36.02
2018-07-04T14:07:41.404Z,36.13
2018-07-04T14:08:51.064Z,35.94
2018-07-04T14:10:00.744Z,35.94
2018-07-04T14:11:10.806Z,36.11
2018-07-04T14:12:19.782Z,36.04
2018-07-04T14:13:28.970Z,35.94
2018-07-04T14:14:38.140Z,35.94
2018-07-04T14:15:47.301Z,36.22
2018-07-04T14:16:56.208Z,36.32
2018-07-04T14:18:05.873Z,36.22
2018-07-04T14:19:15.284Z,36.22
2018-07-04T14:20:24.701Z,36.13
2018-07-04T14:21:33.869Z,36.13
2018-07-04T14:22:43.034Z,36.21
2018-07-04T14:23:52.181Z,36.22
2018-07-04T14:25:01.602Z,36.22
2018-07-04T14:26:10.756Z,36.21
2018-07-04T14:27:20.210Z,36.22
2018-07-04T14:28:29.643Z,36.42
2018-07-04T14:29:39.569Z,36.13
2018-07-04T14:30:49.506Z,36.13
2018-07-04T14:31:59.159Z,36.22
2018-07-04T14:33:08.822Z,35.94
2018-07-04T14:34:18.485Z,36.04
2018-07-04T14:35:27.657Z,36.13
2018-07-04T14:36:37.075Z,36.13
2018-07-04T14:37:47.010Z,36.13
2018-07-04T14:38:56.222Z,35.94
2018-07-04T14:40:05.793Z,36.04
2018-07-04T14:41:15.738Z,36.22
2018-07-04T14:42:24.409Z,36.22
2018-07-04T14:43:33.620Z,36.13
2018-07-04T14:44:43.303Z,36.04
2018-07-04T14:45:53.007Z,36.13
2018-07-04T14:47:02.158Z,36.04
2018-07-04T14:48:11.845Z,35.94
2018-07-04T14:49:21.004Z,36.3
2018-07-04T14:50:30.416Z,36.04
2018-07-04T14:51:40.120Z,36.11
2018-07-04T14:52:49.277Z,36.13
2018-07-04T14:53:59.207Z,36.22